Fort Sumner, New Mexico
Current Conditions -  °F | °C
As of 12:56 PM on Saturday 20 Dec 2014 (Local Time) from K4MR Reporting Station
Clear Clear  
Wind Chill: 43°   Ceiling: Unl
Heat Index: 47°   Visibility: 10mi
Dew Point: 19°   Wind: 8mph
Humidity: 32%   Direction: 240°WSW
Pressure: 30.03"   Gusts: NA
Location:  34.47°N, 104.25°W
Report Text: K4MR 201956Z AUTO 24007KT 10SM CLR 08/M07 A3003 RMK AO2 SLP167 T00841074
Loading
Personal Weather Stations






























Interactive Weather Map New forecast layout! Learn more

10-Day Weather Forecast

Advertisements
Track Severe Weather on mobile